Learmonth, Australia
Current Conditions -  °F | °C
As of 6:30 PM on Thursday 27 Nov 2014 (Local Time) from YPLM Reporting Station
Clear Clear  
Wind Chill: 77°   Ceiling: Unl
Heat Index: 79°   Visibility: 6mi
Dew Point: 59°   Wind: 14mph
Humidity: 54%   Direction: 260°W
Pressure: 29.83"   Gusts: NA
Location:  22.23°S, 114.09°E
Report Text: YPLM 271030Z AUTO 26012KT 9999 // NCD 25/15 Q1010
Loading
Personal Weather Stations






























Interactive Weather Map New forecast layout! Learn more

10-Day Weather Forecast

Advertisements
Track Severe Weather on mobile